createdAt,value
2018-05-27T00:00:04.152Z,20.22
2018-05-27T00:03:07.870Z,20.13
2018-05-27T00:06:11.142Z,20.16
2018-05-27T00:09:13.787Z,20.05
2018-05-27T00:12:17.204Z,19.85
2018-05-27T00:15:21.043Z,20.04
2018-05-27T00:18:23.647Z,20.02
2018-05-27T00:21:26.219Z,19.96
2018-05-27T00:24:28.827Z,19.93
2018-05-27T00:27:32.069Z,19.86
2018-05-27T00:30:34.612Z,19.95
2018-05-27T00:33:37.205Z,19.94
2018-05-27T00:36:39.698Z,19.94
2018-05-27T00:39:43.383Z,19.77
2018-05-27T00:42:45.900Z,19.74
2018-05-27T00:45:48.433Z,19.77
2018-05-27T00:48:50.934Z,19.56
2018-05-27T00:51:53.488Z,19.48
2018-05-27T00:54:56.016Z,19.51
2018-05-27T00:57:58.542Z,19.45
2018-05-27T01:01:01.076Z,19.38
2018-05-27T01:04:03.612Z,19.42
2018-05-27T01:07:06.173Z,19.39
2018-05-27T01:10:08.700Z,19.40
2018-05-27T01:13:11.315Z,19.31
2018-05-27T01:16:13.914Z,19.37
2018-05-27T01:19:16.435Z,19.40
2018-05-27T01:22:19.118Z,19.30
2018-05-27T01:25:21.789Z,19.13
2018-05-27T01:28:24.323Z,19.02
2018-05-27T01:31:26.826Z,19.03
2018-05-27T01:34:29.356Z,19.14
2018-05-27T01:37:31.834Z,19.06
2018-05-27T01:40:34.364Z,19.00
2018-05-27T01:43:36.868Z,18.91
2018-05-27T01:46:39.399Z,18.84
2018-05-27T01:49:41.892Z,18.70
2018-05-27T01:52:44.435Z,18.80
2018-05-27T01:55:46.956Z,18.76
2018-05-27T01:58:49.437Z,18.57
2018-05-27T02:01:51.916Z,18.69
2018-05-27T02:04:54.992Z,18.79
2018-05-27T02:07:57.509Z,18.77
2018-05-27T02:11:00.050Z,18.82
2018-05-27T02:14:02.536Z,18.67
2018-05-27T02:17:06.455Z,18.64
2018-05-27T02:20:08.943Z,18.64
2018-05-27T02:23:11.458Z,18.50
2018-05-27T02:26:14.003Z,18.60
2018-05-27T02:29:16.552Z,18.67
2018-05-27T02:32:19.035Z,18.63
2018-05-27T02:35:21.597Z,18.56
2018-05-27T02:38:24.096Z,18.48
2018-05-27T02:41:26.622Z,18.36
2018-05-27T02:44:29.120Z,18.42
2018-05-27T02:47:32.192Z,18.29
2018-05-27T02:50:34.686Z,18.27
2018-05-27T02:53:37.229Z,18.21
2018-05-27T02:56:39.755Z,18.34
2018-05-27T02:59:42.279Z,18.39
2018-05-27T03:02:44.767Z,18.37
2018-05-27T03:05:47.306Z,18.42
2018-05-27T03:08:49.789Z,18.25
2018-05-27T03:11:52.893Z,18.23
2018-05-27T03:14:55.401Z,18.34
2018-05-27T03:17:57.936Z,18.26
2018-05-27T03:21:00.425Z,18.20
2018-05-27T03:24:02.957Z,17.94
2018-05-27T03:27:05.475Z,17.85
2018-05-27T03:30:08.025Z,17.73
2018-05-27T03:33:10.509Z,17.51
2018-05-27T03:36:13.020Z,17.07
2018-05-27T03:39:15.524Z,17.48
2018-05-27T03:42:18.038Z,17.48
2018-05-27T03:45:20.558Z,16.99
2018-05-27T03:48:23.088Z,17.04
2018-05-27T03:51:25.637Z,16.83
2018-05-27T03:54:28.114Z,17.19
2018-05-27T03:57:30.680Z,17.12
2018-05-27T04:00:33.176Z,17.18
2018-05-27T04:03:35.647Z,17.14
2018-05-27T04:06:49.970Z,17.11
2018-05-27T04:09:52.444Z,17.09
2018-05-27T04:12:54.959Z,17.18
2018-05-27T04:15:57.472Z,17.16
2018-05-27T04:19:00.693Z,17.12
2018-05-27T04:22:03.354Z,17.13
2018-05-27T04:25:05.831Z,17.07
2018-05-27T04:28:08.357Z,17.12
2018-05-27T04:31:10.850Z,17.15
2018-05-27T04:34:13.394Z,17.19
2018-05-27T04:37:15.880Z,17.27
2018-05-27T04:40:18.402Z,17.10
2018-05-27T04:43:20.882Z,17.20
2018-05-27T04:46:23.403Z,17.10
2018-05-27T04:49:25.892Z,17.15
2018-05-27T04:52:28.420Z,17.44
2018-05-27T04:55:30.935Z,17.29
2018-05-27T04:58:33.448Z,17.22
2018-05-27T05:01:35.956Z,17.20
2018-05-27T05:04:38.466Z,17.24
2018-05-27T05:07:40.997Z,17.13
2018-05-27T05:10:43.522Z,17.36
2018-05-27T05:13:46.022Z,17.47
2018-05-27T05:16:48.542Z,17.42
2018-05-27T05:19:51.044Z,17.40
2018-05-27T05:22:53.615Z,17.59
2018-05-27T05:25:56.107Z,17.71
2018-05-27T05:28:58.631Z,17.59
2018-05-27T05:32:01.115Z,17.67
2018-05-27T05:35:03.628Z,17.61
2018-05-27T05:38:06.136Z,17.77
2018-05-27T05:41:08.681Z,17.74
2018-05-27T05:44:11.175Z,17.83
2018-05-27T05:47:13.654Z,17.84
2018-05-27T05:50:16.154Z,17.88
2018-05-27T05:53:18.675Z,17.90
2018-05-27T05:56:21.173Z,17.97
2018-05-27T05:59:23.702Z,18.03
2018-05-27T06:02:26.205Z,18.09
2018-05-27T06:05:28.683Z,18.14
2018-05-27T06:08:31.201Z,18.25
2018-05-27T06:11:33.700Z,18.26
2018-05-27T06:14:39.720Z,18.43
2018-05-27T06:17:42.414Z,18.41
2018-05-27T06:20:45.020Z,18.51
2018-05-27T06:23:47.584Z,18.63
2018-05-27T06:26:50.112Z,18.70
2018-05-27T06:29:52.643Z,18.82
2018-05-27T06:32:55.163Z,18.85
2018-05-27T06:35:57.674Z,19.02
2018-05-27T06:39:00.233Z,19.15
2018-05-27T06:42:02.732Z,19.34
2018-05-27T06:45:05.300Z,19.43
2018-05-27T06:48:07.837Z,19.50
2018-05-27T06:51:10.442Z,19.70
2018-05-27T06:54:13.062Z,19.87
2018-05-27T06:57:17.325Z,20.09
2018-05-27T07:00:19.936Z,20.28
2018-05-27T07:03:22.541Z,20.55
2018-05-27T07:06:25.094Z,20.67
2018-05-27T07:09:27.678Z,20.84
2018-05-27T07:12:30.276Z,20.89
2018-05-27T07:15:32.888Z,21.01
2018-05-27T07:18:36.469Z,21.24
2018-05-27T07:21:39.914Z,21.53
2018-05-27T07:24:44.605Z,21.65
2018-05-27T07:27:47.283Z,21.89
2018-05-27T07:30:49.866Z,22.12
2018-05-27T07:33:52.464Z,21.98
2018-05-27T07:36:55.126Z,22.21
2018-05-27T07:39:57.878Z,22.33
2018-05-27T07:43:00.442Z,22.61
2018-05-27T07:46:03.089Z,22.74
2018-05-27T07:49:05.760Z,22.86
2018-05-27T07:52:10.117Z,22.98
2018-05-27T07:55:15.190Z,23.08
2018-05-27T07:58:17.851Z,23.37
2018-05-27T08:01:21.589Z,23.49
2018-05-27T08:04:24.198Z,23.67
2018-05-27T08:07:26.823Z,23.96
2018-05-27T08:10:30.554Z,24.06
2018-05-27T08:13:33.568Z,24.34
2018-05-27T08:16:36.313Z,24.39
2018-05-27T08:19:38.914Z,24.50
2018-05-27T08:22:41.529Z,24.57
2018-05-27T08:25:44.271Z,24.78
2018-05-27T08:28:46.830Z,24.87
2018-05-27T08:31:49.403Z,25.03
2018-05-27T08:34:51.977Z,25.22
2018-05-27T08:37:54.510Z,25.36
2018-05-27T08:40:57.068Z,25.54
2018-05-27T08:43:59.640Z,25.50
2018-05-27T08:47:02.173Z,25.78
2018-05-27T08:50:04.705Z,25.57
2018-05-27T08:53:07.383Z,25.90
2018-05-27T08:56:09.951Z,26.12
2018-05-27T08:59:12.519Z,26.25
2018-05-27T09:02:15.173Z,26.37
2018-05-27T09:05:20.793Z,26.63
2018-05-27T09:08:23.394Z,26.52
2018-05-27T09:11:27.998Z,26.80
2018-05-27T09:14:30.617Z,27.17
2018-05-27T09:17:39.667Z,27.17
2018-05-27T09:20:45.423Z,27.20
2018-05-27T09:23:49.249Z,27.40
2018-05-27T09:26:51.946Z,27.51
2018-05-27T09:29:54.630Z,27.85
2018-05-27T09:32:57.177Z,27.89
2018-05-27T09:35:59.793Z,28.06
2018-05-27T09:39:02.447Z,28.14
2018-05-27T09:42:05.072Z,28.24
2018-05-27T09:45:07.670Z,28.10
2018-05-27T09:48:10.252Z,28.10
2018-05-27T09:51:13.905Z,27.92
2018-05-27T09:54:16.568Z,28.44
2018-05-27T09:57:19.199Z,28.64
2018-05-27T10:00:22.474Z,28.79
2018-05-27T10:03:25.255Z,28.92
2018-05-27T10:06:27.930Z,29.10
2018-05-27T10:09:30.622Z,29.20
2018-05-27T10:12:34.493Z,29.31
2018-05-27T10:15:38.354Z,28.99
2018-05-27T10:18:41.016Z,29.36
2018-05-27T10:21:45.779Z,29.67
2018-05-27T10:24:48.681Z,29.83
2018-05-27T10:27:51.512Z,29.78
2018-05-27T10:30:55.389Z,29.53
2018-05-27T10:33:58.158Z,29.58
2018-05-27T10:37:01.719Z,29.77
2018-05-27T10:40:04.364Z,29.79
2018-05-27T10:43:07.046Z,30.08
2018-05-27T10:46:09.799Z,29.93
2018-05-27T10:49:12.453Z,30.10
2018-05-27T10:52:15.144Z,30.41
2018-05-27T10:55:18.005Z,30.40
2018-05-27T10:58:20.709Z,30.43
2018-05-27T11:01:23.392Z,30.89
2018-05-27T11:04:26.068Z,30.62
2018-05-27T11:07:29.436Z,30.58
2018-05-27T11:10:34.664Z,30.68
2018-05-27T11:13:37.430Z,30.74
2018-05-27T11:16:40.039Z,30.46
2018-05-27T11:19:43.871Z,30.72
2018-05-27T11:22:49.394Z,31.06
2018-05-27T11:25:52.997Z,31.17
2018-05-27T11:28:55.601Z,31.11
2018-05-27T11:31:58.295Z,31.21
2018-05-27T11:35:03.745Z,31.50
2018-05-27T11:38:26.676Z,31.34
2018-05-27T11:41:30.330Z,31.65
2018-05-27T11:44:33.157Z,31.24
2018-05-27T11:47:35.848Z,31.00
2018-05-27T11:50:38.563Z,31.46
2018-05-27T11:53:41.266Z,30.87
2018-05-27T11:56:43.871Z,30.57
2018-05-27T11:59:46.506Z,30.43
2018-05-27T12:02:49.105Z,30.75
2018-05-27T12:05:52.994Z,30.39
2018-05-27T12:08:55.650Z,30.07
2018-05-27T12:11:58.226Z,29.59
2018-05-27T12:15:00.847Z,29.26
2018-05-27T12:18:04.038Z,29.15
2018-05-27T12:21:06.624Z,28.62
2018-05-27T12:24:09.212Z,28.48
2018-05-27T12:27:11.875Z,28.40
2018-05-27T12:30:15.389Z,28.11
2018-05-27T12:33:17.963Z,28.27
2018-05-27T12:36:20.597Z,28.09
2018-05-27T12:39:23.175Z,27.70
2018-05-27T12:42:25.778Z,27.05
2018-05-27T12:45:28.329Z,26.37
2018-05-27T12:48:30.862Z,25.73
2018-05-27T12:51:33.479Z,26.03
2018-05-27T12:54:36.111Z,26.57
2018-05-27T12:57:38.697Z,26.15
2018-05-27T13:00:41.394Z,26.45
2018-05-27T13:03:43.903Z,26.62
2018-05-27T13:06:46.598Z,26.60
2018-05-27T13:09:49.780Z,26.84
2018-05-27T13:12:52.467Z,26.84
2018-05-27T13:15:55.075Z,26.82
2018-05-27T13:18:57.641Z,26.83
2018-05-27T13:22:01.746Z,27.09
2018-05-27T13:25:05.563Z,27.11
2018-05-27T13:28:08.196Z,27.35
2018-05-27T13:31:10.794Z,27.32
2018-05-27T13:34:13.910Z,27.41
2018-05-27T13:37:16.558Z,27.57
2018-05-27T13:40:19.220Z,27.70
2018-05-27T13:43:21.958Z,27.88
2018-05-27T13:46:24.646Z,27.88
2018-05-27T13:49:27.300Z,28.12
2018-05-27T13:52:29.975Z,28.41
2018-05-27T13:55:32.556Z,28.48
2018-05-27T13:58:36.150Z,28.31
2018-05-27T14:01:38.969Z,28.46
2018-05-27T14:04:41.694Z,28.50
2018-05-27T14:07:48.021Z,28.41
2018-05-27T14:10:58.400Z,28.04
2018-05-27T14:14:27.318Z,28.15
2018-05-27T14:17:32.824Z,27.85
2018-05-27T14:20:37.980Z,27.68
2018-05-27T14:23:41.559Z,27.41
2018-05-27T14:33:39.241Z,27.05
2018-05-27T14:36:42.027Z,27.12
2018-05-27T14:39:44.607Z,27.02
2018-05-27T14:42:48.147Z,27.33
2018-05-27T14:45:50.892Z,27.55
2018-05-27T14:48:53.676Z,27.71
2018-05-27T14:51:56.346Z,27.98
2018-05-27T14:54:58.926Z,27.85
2018-05-27T14:58:01.696Z,27.64
2018-05-27T15:01:04.271Z,27.87
2018-05-27T15:04:06.871Z,27.50
2018-05-27T15:07:09.453Z,27.55
2018-05-27T15:10:12.054Z,27.51
2018-05-27T15:13:14.682Z,27.27
2018-05-27T15:16:17.364Z,27.31
2018-05-27T15:19:19.983Z,27.53
2018-05-27T15:22:22.584Z,27.49
2018-05-27T15:25:25.422Z,27.59
2018-05-27T15:28:28.587Z,27.50
2018-05-27T15:31:31.208Z,27.36
2018-05-27T15:34:34.777Z,27.24
2018-05-27T15:37:39.782Z,27.08
2018-05-27T15:40:45.963Z,26.98
2018-05-27T15:43:51.679Z,26.71
2018-05-27T15:46:54.441Z,26.65
2018-05-27T15:49:57.172Z,26.50
2018-05-27T15:53:14.572Z,26.48
2018-05-27T15:56:17.227Z,26.36
2018-05-27T15:59:19.938Z,26.62
2018-05-27T16:02:23.232Z,26.57
2018-05-27T16:05:26.851Z,26.51
2018-05-27T16:08:30.232Z,26.56
2018-05-27T16:11:33.017Z,26.55
2018-05-27T16:14:40.218Z,26.62
2018-05-27T16:17:46.487Z,26.22
2018-05-27T16:20:50.102Z,26.26
2018-05-27T16:23:53.192Z,25.96
2018-05-27T16:26:56.540Z,26.18
2018-05-27T16:29:59.358Z,25.69
2018-05-27T16:33:02.255Z,25.81
2018-05-27T16:36:05.161Z,25.79
2018-05-27T16:39:09.296Z,25.66
2018-05-27T16:42:12.113Z,25.78
2018-05-27T16:45:14.800Z,25.73
2018-05-27T16:48:17.429Z,25.83
2018-05-27T16:51:20.219Z,26.03
2018-05-27T16:54:22.929Z,25.44
2018-05-27T16:57:25.619Z,25.10
2018-05-27T17:00:29.174Z,25.38
2018-05-27T17:03:32.040Z,25.21
2018-05-27T17:06:34.846Z,25.11
2018-05-27T17:09:37.429Z,25.12
2018-05-27T17:12:40.381Z,24.98
2018-05-27T17:15:43.982Z,25.05
2018-05-27T17:18:48.861Z,24.90
2018-05-27T17:21:52.352Z,25.09
2018-05-27T17:24:59.844Z,25.18
2018-05-27T17:28:02.543Z,24.91
2018-05-27T17:34:44.572Z,24.79
2018-05-27T17:37:55.007Z,24.70
2018-05-27T17:41:21.233Z,24.70
2018-05-27T17:54:49.042Z,24.43
2018-05-27T19:10:46.755Z,23.41
2018-05-27T19:13:49.396Z,23.32
2018-05-27T19:16:51.985Z,23.21
2018-05-27T19:19:54.790Z,22.56
2018-05-27T19:22:57.498Z,22.37
2018-05-27T19:26:00.191Z,22.51
2018-05-27T19:29:02.997Z,22.21
2018-05-27T19:32:06.832Z,22.10
2018-05-27T19:35:09.429Z,22.02
2018-05-27T19:38:12.178Z,21.78
2018-05-27T19:41:14.796Z,21.64
2018-05-27T19:44:17.475Z,21.75
2018-05-27T19:47:20.021Z,21.73
2018-05-27T19:50:22.672Z,21.60
2018-05-27T19:53:25.392Z,21.53
2018-05-27T19:56:28.022Z,21.34
2018-05-27T19:59:30.690Z,21.39
2018-05-27T20:02:33.307Z,21.26
2018-05-27T20:05:36.063Z,21.25
2018-05-27T20:08:38.685Z,21.19
2018-05-27T20:11:41.346Z,21.07
2018-05-27T20:14:43.961Z,21.10
2018-05-27T20:17:46.594Z,21.05
2018-05-27T20:20:49.226Z,21.01
2018-05-27T20:23:51.899Z,20.98
2018-05-27T20:26:54.482Z,20.96
2018-05-27T20:29:57.163Z,20.96
2018-05-27T20:32:59.833Z,20.91
2018-05-27T20:36:02.491Z,20.84
2018-05-27T20:39:05.787Z,20.71
2018-05-27T20:42:08.455Z,20.68
2018-05-27T20:45:11.031Z,20.83
2018-05-27T20:48:13.706Z,20.78
2018-05-27T20:51:16.312Z,20.70
2018-05-27T20:54:18.874Z,20.71
2018-05-27T20:57:21.458Z,20.67
2018-05-27T21:00:24.093Z,20.64
2018-05-27T21:03:26.647Z,20.56
2018-05-27T21:06:29.243Z,20.52
2018-05-27T21:09:31.781Z,20.49
2018-05-27T21:12:34.338Z,20.51
2018-05-27T21:15:36.865Z,20.42
2018-05-27T21:18:39.372Z,20.42
2018-05-27T21:21:41.907Z,20.39
2018-05-27T21:24:44.471Z,20.33
2018-05-27T21:27:47.038Z,20.33
2018-05-27T21:30:49.666Z,20.33
2018-05-27T21:33:52.440Z,20.29
2018-05-27T21:36:56.196Z,20.23
2018-05-27T21:39:58.934Z,20.22
2018-05-27T21:43:01.563Z,20.22
2018-05-27T21:46:11.161Z,20.17
2018-05-27T21:49:14.674Z,20.12
2018-05-27T21:52:17.469Z,20.12
2018-05-27T21:59:24.574Z,20.01
2018-05-27T22:02:27.260Z,20.05
2018-05-27T22:05:29.896Z,19.97
2018-05-27T22:08:32.555Z,19.96
2018-05-27T22:11:35.280Z,19.96
2018-05-27T22:14:37.859Z,19.99
2018-05-27T22:17:40.440Z,19.87
2018-05-27T22:20:43.019Z,19.91
2018-05-27T22:23:45.619Z,19.76
2018-05-27T22:26:48.528Z,19.75
2018-05-27T22:30:03.000Z,19.76
2018-05-27T22:33:05.640Z,19.73
2018-05-27T22:36:08.271Z,19.66
2018-05-27T22:39:10.874Z,19.81
2018-05-27T22:42:13.589Z,19.65
2018-05-27T22:45:16.216Z,19.60
2018-05-27T22:48:44.906Z,19.60
2018-05-27T22:51:47.675Z,19.53
2018-05-27T22:54:50.253Z,19.63
2018-05-27T22:57:52.932Z,19.57
2018-05-27T23:00:55.535Z,19.49
2018-05-27T23:03:58.065Z,19.64
2018-05-27T23:07:00.659Z,19.48
2018-05-27T23:10:03.201Z,19.46
2018-05-27T23:13:05.728Z,19.43
2018-05-27T23:16:10.313Z,19.45
2018-05-27T23:19:12.869Z,19.36
2018-05-27T23:22:15.444Z,19.33
2018-05-27T23:25:18.839Z,19.33
2018-05-27T23:28:21.632Z,19.39
2018-05-27T23:31:24.275Z,19.31
2018-05-27T23:34:26.916Z,19.21
2018-05-27T23:37:29.514Z,19.21
2018-05-27T23:40:32.123Z,19.16
